Time;durP1;ratioP1;P1;durP2;ratioP2;P2;SDS_P1;SDS_P2;PMS_P1;PMS_P2;Temp;Humidity;BMP_temperature;BMP_pressure;BME280_temperature;BME280_humidity;BME280_pressure;Samples;Min_cycle;Max_cycle;Signal;HPM_P1;HPM_P2
2020/10/12 00:01:12;;;;;;;0.4;0.3;;;;;;;;;;;;;
2020/10/12 00:03:36;;;;;;;1;0.5;;;;;;;;;;;;;
2020/10/12 00:06:01;;;;;;;0.7;0.5;;;;;;;;;;;;;
2020/10/12 00:08:26;;;;;;;0.3;0.3;;;;;;;;;;;;;
2020/10/12 00:10:51;;;;;;;0.4;0.4;;;;;;;;;;;;;
2020/10/12 00:13:16;;;;;;;0.4;0.3;;;;;;;;;;;;;
2020/10/12 00:15:41;;;;;;;0.2;0.2;;;;;;;;;;;;;
2020/10/12 00:18:07;;;;;;;0.7;0.6;;;;;;;;;;;;;
2020/10/12 00:20:31;;;;;;;0.3;0.3;;;;;;;;;;;;;
2020/10/12 00:22:57;;;;;;;0.3;0.3;;;;;;;;;;;;;
2020/10/12 00:25:22;;;;;;;0.4;0.4;;;;;;;;;;;;;
2020/10/12 00:27:47;;;;;;;0.5;0.4;;;;;;;;;;;;;
2020/10/12 00:30:12;;;;;;;1.1;0.8;;;;;;;;;;;;;
2020/10/12 00:32:37;;;;;;;1.1;0.5;;;;;;;;;;;;;
2020/10/12 00:35:02;;;;;;;0.8;0.6;;;;;;;;;;;;;
2020/10/12 00:37:29;;;;;;;0.5;0.4;;;;;;;;;;;;;
2020/10/12 00:39:54;;;;;;;4.1;0.7;;;;;;;;;;;;;
2020/10/12 00:42:20;;;;;;;0.4;0.4;;;;;;;;;;;;;
2020/10/12 00:44:45;;;;;;;1.7;0.7;;;;;;;;;;;;;
2020/10/12 00:47:26;;;;;;;1;0.6;;;;;;;;;;;;;
2020/10/12 00:49:50;;;;;;;0.9;0.6;;;;;;;;;;;;;
2020/10/12 00:52:16;;;;;;;0.4;0.4;;;;;;;;;;;;;
2020/10/12 00:54:41;;;;;;;0.9;0.5;;;;;;;;;;;;;
2020/10/12 00:57:07;;;;;;;0.5;0.5;;;;;;;;;;;;;
2020/10/12 00:59:32;;;;;;;1.2;0.6;;;;;;;;;;;;;
2020/10/12 01:02:09;;;;;;;0.9;0.5;;;;;;;;;;;;;
2020/10/12 01:04:25;;;;;;;0.5;0.5;;;;;;;;;;;;;
2020/10/12 01:06:52;;;;;;;0.4;0.4;;;;;;;;;;;;;
2020/10/12 01:09:20;;;;;;;0.8;0.6;;;;;;;;;;;;;
2020/10/12 01:11:44;;;;;;;0.9;0.5;;;;;;;;;;;;;
2020/10/12 01:14:08;;;;;;;0.5;0.5;;;;;;;;;;;;;
2020/10/12 01:16:33;;;;;;;0.3;0.3;;;;;;;;;;;;;
2020/10/12 01:19:01;;;;;;;2.4;0.7;;;;;;;;;;;;;
2020/10/12 01:21:24;;;;;;;0.7;0.5;;;;;;;;;;;;;
2020/10/12 01:23:50;;;;;;;1;0.5;;;;;;;;;;;;;
2020/10/12 01:26:15;;;;;;;0.8;0.6;;;;;;;;;;;;;
2020/10/12 01:28:40;;;;;;;0.5;0.4;;;;;;;;;;;;;
2020/10/12 01:31:07;;;;;;;0.2;0.2;;;;;;;;;;;;;
2020/10/12 01:33:32;;;;;;;0.6;0.5;;;;;;;;;;;;;
2020/10/12 01:35:57;;;;;;;0.5;0.5;;;;;;;;;;;;;
2020/10/12 01:38:23;;;;;;;0.3;0.3;;;;;;;;;;;;;
2020/10/12 01:40:54;;;;;;;0.4;0.4;;;;;;;;;;;;;
2020/10/12 01:43:13;;;;;;;0.3;0.3;;;;;;;;;;;;;
2020/10/12 01:45:42;;;;;;;0.4;0.3;;;;;;;;;;;;;
2020/10/12 01:48:09;;;;;;;0.4;0.4;;;;;;;;;;;;;
2020/10/12 01:50:36;;;;;;;0.3;0.3;;;;;;;;;;;;;
2020/10/12 01:53:01;;;;;;;0.6;0.5;;;;;;;;;;;;;
2020/10/12 01:55:29;;;;;;;0.9;0.6;;;;;;;;;;;;;
2020/10/12 01:57:53;;;;;;;1.1;0.5;;;;;;;;;;;;;
2020/10/12 02:00:25;;;;;;;2.2;0.8;;;;;;;;;;;;;
2020/10/12 02:02:52;;;;;;;2.5;0.5;;;;;;;;;;;;;
2020/10/12 02:05:17;;;;;;;0.9;0.5;;;;;;;;;;;;;
2020/10/12 02:07:43;;;;;;;0.7;0.6;;;;;;;;;;;;;
2020/10/12 02:12:34;;;;;;;0.5;0.3;;;;;;;;;;;;;
2020/10/12 02:14:58;;;;;;;0.5;0.3;;;;;;;;;;;;;
2020/10/12 02:17:28;;;;;;;0.9;0.7;;;;;;;;;;;;;
2020/10/12 02:19:50;;;;;;;1.3;0.6;;;;;;;;;;;;;
2020/10/12 02:22:15;;;;;;;0.8;0.6;;;;;;;;;;;;;
2020/10/12 02:24:41;;;;;;;2.5;0.7;;;;;;;;;;;;;
2020/10/12 02:27:17;;;;;;;0.7;0.5;;;;;;;;;;;;;
2020/10/12 02:29:42;;;;;;;0.5;0.4;;;;;;;;;;;;;
2020/10/12 02:32:08;;;;;;;0.4;0.3;;;;;;;;;;;;;
2020/10/12 02:34:33;;;;;;;0.3;0.3;;;;;;;;;;;;;
2020/10/12 02:36:58;;;;;;;3.6;0.7;;;;;;;;;;;;;
2020/10/12 02:39:24;;;;;;;0.4;0.4;;;;;;;;;;;;;
2020/10/12 02:41:48;;;;;;;0.4;0.4;;;;;;;;;;;;;
2020/10/12 02:44:13;;;;;;;1.3;0.7;;;;;;;;;;;;;
2020/10/12 02:46:39;;;;;;;0.6;0.6;;;;;;;;;;;;;
2020/10/12 02:49:04;;;;;;;0.9;0.6;;;;;;;;;;;;;
2020/10/12 02:51:30;;;;;;;0.5;0.5;;;;;;;;;;;;;
2020/10/12 02:53:58;;;;;;;1.3;0.6;;;;;;;;;;;;;
2020/10/12 02:56:21;;;;;;;0.6;0.5;;;;;;;;;;;;;
2020/10/12 02:58:45;;;;;;;0.8;0.6;;;;;;;;;;;;;
2020/10/12 03:01:12;;;;;;;2.1;0.9;;;;;;;;;;;;;
2020/10/12 03:03:35;;;;;;;0.9;0.6;;;;;;;;;;;;;
2020/10/12 03:06:34;;;;;;;0.9;0.7;;;;;;;;;;;;;
2020/10/12 03:08:32;;;;;;;1;0.6;;;;;;;;;;;;;
2020/10/12 03:10:52;;;;;;;1.3;0.8;;;;;;;;;;;;;
2020/10/12 03:13:20;;;;;;;0.8;0.7;;;;;;;;;;;;;
2020/10/12 03:15:42;;;;;;;0.6;0.6;;;;;;;;;;;;;
2020/10/12 03:18:07;;;;;;;1;0.6;;;;;;;;;;;;;
2020/10/12 03:20:44;;;;;;;1.8;0.7;;;;;;;;;;;;;
2020/10/12 03:22:59;;;;;;;2.1;1.1;;;;;;;;;;;;;
2020/10/12 03:25:29;;;;;;;0.7;0.6;;;;;;;;;;;;;
2020/10/12 03:27:50;;;;;;;0.8;0.6;;;;;;;;;;;;;
2020/10/12 03:30:18;;;;;;;0.7;0.6;;;;;;;;;;;;;
2020/10/12 03:32:41;;;;;;;0.5;0.5;;;;;;;;;;;;;
2020/10/12 03:35:06;;;;;;;1;0.8;;;;;;;;;;;;;
2020/10/12 03:38:08;;;;;;;0.6;0.5;;;;;;;;;;;;;
2020/10/12 03:40:26;;;;;;;1.4;0.8;;;;;;;;;;;;;
2020/10/12 03:42:44;;;;;;;1.1;0.8;;;;;;;;;;;;;
2020/10/12 03:45:10;;;;;;;0.6;0.6;;;;;;;;;;;;;
2020/10/12 03:47:34;;;;;;;1.3;0.6;;;;;;;;;;;;;
2020/10/12 03:50:24;;;;;;;0.7;0.6;;;;;;;;;;;;;
2020/10/12 03:52:37;;;;;;;0.8;0.7;;;;;;;;;;;;;
2020/10/12 03:54:58;;;;;;;0.9;0.7;;;;;;;;;;;;;
2020/10/12 03:57:26;;;;;;;0.8;0.5;;;;;;;;;;;;;
2020/10/12 04:00:01;;;;;;;4.1;2.5;;;;;;;;;;;;;
2020/10/12 04:03:18;;;;;;;1.1;1;;;;;;;6.95;87.82227;939.5941;;;;
2020/10/12 04:05:41;;;;;;;0.5;0.5;;;;;;;7.07;87.52734;939.5955;;;;
2020/10/12 04:08:23;;;;;;;1.1;0.6;;;;;;;6.99;86.84473;939.6718;;;;
2020/10/12 04:11:12;;;;;;;0.6;0.5;;;;;;;6.9;87.61914;939.6964;;;;
2020/10/12 04:13:48;;;;;;;1.1;0.9;;;;;;;6.91;87.89258;939.6753;;;;
2020/10/12 04:16:13;;;;;;;0.8;0.8;;;;;;;6.94;87.41113;939.7305;;;;
2020/10/12 04:18:47;;;;;;;1.1;0.8;;;;;;;7.05;86.5498;939.7226;;;;
2020/10/12 04:21:33;;;;;;;0.6;0.6;;;;;;;7.09;85.66211;939.6277;;;;
2020/10/12 04:46:26;;;;;;;0.4;0.4;;;;;;;6.38;84.4248;939.8638;;;;
2020/10/12 04:48:37;;;;;;;1.5;0.7;;;;;;;6.38;85.00098;939.8653;;;;
2020/10/12 04:51:31;;;;;;;0.7;0.7;;;;;;;5.83;85.77344;939.8977;;;;
2020/10/12 04:53:56;;;;;;;0.7;0.6;;;;;;;5.76;87.34082;939.927;;;;
2020/10/12 04:56:25;;;;;;;1;0.6;;;;;;;5.95;86.25977;939.9294;;;;
2020/10/12 04:58:53;;;;;;;0.8;0.6;;;;;;;5.79;87.00781;939.9256;;;;
2020/10/12 05:02:03;;;;;;;0.5;0.5;;;;;;;5.6;87.55469;939.97;;;;
2020/10/12 05:04:29;;;;;;;0.8;0.5;;;;;;;5.68;87.42383;939.938;;;;
2020/10/12 05:09:57;;;;;;;0.7;0.3;;;;;;;5.76;88.01855;939.9603;;;;
2020/10/12 05:12:23;;;;;;;0.4;0.4;;;;;;;5.75;88.13867;939.9906;;;;
2020/10/12 05:14:47;;;;;;;0.3;0.3;;;;;;;5.9;87.75293;940.0036;;;;
2020/10/12 05:17:19;;;;;;;0.6;0.5;;;;;;;5.95;87.52441;940.0233;;;;
2020/10/12 05:19:49;;;;;;;0.6;0.3;;;;;;;6.09;86.53711;940.045;;;;
2020/10/12 05:22:14;;;;;;;1.9;0.6;;;;;;;6.24;85.95605;940.0441;;;;
2020/10/12 05:24:48;;;;;;;0.8;0.7;;;;;;;6.3;85.84473;940.0639;;;;
2020/10/12 05:27:17;;;;;;;0.7;0.5;;;;;;;6.35;85.83105;940.0669;;;;
2020/10/12 05:29:40;;;;;;;1.6;0.8;;;;;;;6.3;85.16797;940.1124;;;;
2020/10/12 05:32:18;;;;;;;1;0.6;;;;;;;6.26;85.83594;940.1546;;;;
2020/10/12 05:34:42;;;;;;;0.3;0.3;;;;;;;6.2;85.51953;940.162;;;;
2020/10/12 05:37:12;;;;;;;0.8;0.5;;;;;;;6.21;86.13184;940.2205;;;;
2020/10/12 05:39:44;;;;;;;0.6;0.5;;;;;;;6.14;85.89063;940.2536;;;;
2020/10/12 05:42:10;;;;;;;0.8;0.5;;;;;;;6.15;86.71973;940.2572;;;;
2020/10/12 05:44:35;;;;;;;0.8;0.7;;;;;;;6.21;86.0957;940.2472;;;;
2020/10/12 05:47:00;;;;;;;3.6;0.7;;;;;;;6.2;85.87012;940.2878;;;;
2020/10/12 05:49:28;;;;;;;0.7;0.6;;;;;;;6.03;85.79004;940.2568;;;;
2020/10/12 05:51:56;;;;;;;1.3;0.9;;;;;;;5.97;86.97656;940.2888;;;;
2020/10/12 05:54:26;;;;;;;1.5;0.9;;;;;;;6.03;87.15723;940.3097;;;;
2020/10/12 05:56:51;;;;;;;2.4;1;;;;;;;6.15;87.02441;940.3299;;;;
2020/10/12 05:59:19;;;;;;;1.4;1;;;;;;;5.83;88.34766;940.3569;;;;
2020/10/12 06:01:48;;;;;;;0.7;0.7;;;;;;;5.98;87.50781;940.3284;;;;
2020/10/12 06:04:20;;;;;;;0.9;0.7;;;;;;;6.04;86.94434;940.3265;;;;
2020/10/12 06:06:55;;;;;;;0.9;0.7;;;;;;;6.04;87.29492;940.3875;;;;
2020/10/12 06:09:23;;;;;;;0.8;0.7;;;;;;;6.11;87.27539;940.3998;;;;
2020/10/12 06:11:51;;;;;;;0.8;0.6;;;;;;;6.19;86.75;940.4283;;;;
2020/10/12 06:14:16;;;;;;;1.2;0.7;;;;;;;6.25;86.45703;940.4534;;;;
2020/10/12 06:16:47;;;;;;;2;0.9;;;;;;;6.33;86.78809;940.4539;;;;
2020/10/12 06:19:12;;;;;;;1.1;0.6;;;;;;;6.31;87.19141;940.4969;;;;
2020/10/12 06:21:44;;;;;;;1.4;0.7;;;;;;;6.29;86.56641;940.5256;;;;
2020/10/12 06:24:12;;;;;;;1.2;1;;;;;;;6.27;87.43164;940.5232;;;;
2020/10/12 06:26:38;;;;;;;0.8;0.7;;;;;;;6.19;87.9707;940.5444;;;;
2020/10/12 06:29:04;;;;;;;1.7;0.7;;;;;;;6.16;87.97461;940.4984;;;;
2020/10/12 06:31:38;;;;;;;1.6;0.9;;;;;;;6.26;87.72363;940.5911;;;;
2020/10/12 06:34:12;;;;;;;1.3;0.8;;;;;;;6.28;88.99512;940.6003;;;;
2020/10/12 06:36:47;;;;;;;1.1;0.8;;;;;;;6.4;88.52344;940.6591;;;;
2020/10/12 06:39:13;;;;;;;1.8;1.1;;;;;;;6.54;88.05176;940.6903;;;;
2020/10/12 06:41:37;;;;;;;1.3;0.8;;;;;;;6.62;86.05664;940.6209;;;;
2020/10/12 06:44:02;;;;;;;1.9;1.2;;;;;;;6.67;86.33594;940.687;;;;
2020/10/12 06:46:31;;;;;;;1.4;0.9;;;;;;;6.59;83.69629;940.6324;;;;
2020/10/12 06:49:02;;;;;;;1.4;1;;;;;;;6.55;84.32324;940.6591;;;;
2020/10/12 06:51:30;;;;;;;0.8;0.8;;;;;;;6.68;84.7793;940.6234;;;;
2020/10/12 06:53:55;;;;;;;1.8;0.8;;;;;;;6.77;85.13477;940.6425;;;;
2020/10/12 06:56:23;;;;;;;1.5;0.9;;;;;;;6.77;84.43359;940.6803;;;;
2020/10/12 06:58:49;;;;;;;1.5;0.9;;;;;;;6.89;83.30371;940.68;;;;
2020/10/12 07:01:13;;;;;;;0.8;0.8;;;;;;;6.78;82.71484;940.6649;;;;
2020/10/12 07:03:41;;;;;;;1.5;1;;;;;;;6.55;83.53125;940.5641;;;;
2020/10/12 07:06:06;;;;;;;1.1;0.8;;;;;;;6.54;84.12891;940.6501;;;;
2020/10/12 07:08:33;;;;;;;3;1.4;;;;;;;6.46;84.48633;940.5481;;;;
2020/10/12 07:10:58;;;;;;;1.6;1;;;;;;;6.5;84.76465;940.5966;;;;
2020/10/12 07:13:24;;;;;;;1.7;1.2;;;;;;;6.59;84.43164;940.5905;;;;
2020/10/12 07:15:49;;;;;;;1.2;0.9;;;;;;;6.58;83.77539;940.5618;;;;
2020/10/12 07:18:14;;;;;;;2.5;1.3;;;;;;;6.74;84.04297;940.5988;;;;
2020/10/12 07:20:40;;;;;;;1.8;1.1;;;;;;;6.79;83.32813;940.635;;;;
2020/10/12 07:23:05;;;;;;;2.6;1;;;;;;;6.85;84.00781;940.6663;;;;
2020/10/12 07:25:30;;;;;;;1;0.8;;;;;;;6.82;83.57227;940.6506;;;;
2020/10/12 07:27:57;;;;;;;1;0.7;;;;;;;6.99;84.17188;940.6874;;;;
2020/10/12 07:30:28;;;;;;;1;0.9;;;;;;;6.89;83.39355;940.6752;;;;
2020/10/12 07:32:49;;;;;;;0.6;0.6;;;;;;;7.08;84.63184;940.6672;;;;
2020/10/12 07:35:17;;;;;;;0.7;0.7;;;;;;;7.41;82.75879;940.6699;;;;
2020/10/12 07:37:45;;;;;;;1.3;0.7;;;;;;;7.75;82.82324;940.6395;;;;
2020/10/12 07:40:10;;;;;;;2.3;1.1;;;;;;;7.99;80.42871;940.5385;;;;
2020/10/12 07:42:36;;;;;;;1.8;1.2;;;;;;;8.09;78.20996;940.5656;;;;
2020/10/12 07:45:01;;;;;;;1.8;1.2;;;;;;;7.87;77.96875;940.5984;;;;
2020/10/12 07:47:27;;;;;;;1.7;1.1;;;;;;;7.41;79.27734;940.6461;;;;
2020/10/12 07:49:52;;;;;;;1.6;0.8;;;;;;;7.28;79.19531;940.5815;;;;
2020/10/12 07:52:19;;;;;;;0.8;0.7;;;;;;;7.35;79.50391;940.6418;;;;
2020/10/12 07:54:44;;;;;;;1.2;0.9;;;;;;;7.13;80.67383;940.6976;;;;
2020/10/12 07:57:10;;;;;;;2.6;0.9;;;;;;;6.97;81.04102;940.7147;;;;
2020/10/12 07:59:35;;;;;;;2;1.3;;;;;;;7.43;80.85645;940.6656;;;;
2020/10/12 08:02:01;;;;;;;1.6;1;;;;;;;7.44;79.375;940.6041;;;;
2020/10/12 08:04:26;;;;;;;1.7;1.1;;;;;;;7.12;81.20605;940.6905;;;;
2020/10/12 08:06:52;;;;;;;3.3;1.4;;;;;;;7.03;83.26172;940.7332;;;;
2020/10/12 08:09:17;;;;;;;1.1;0.8;;;;;;;7.33;82.7207;940.754;;;;
2020/10/12 08:11:43;;;;;;;3.2;1.5;;;;;;;7.63;82.12988;940.7572;;;;
2020/10/12 08:14:08;;;;;;;1.1;0.8;;;;;;;7.8;81.58594;940.7541;;;;
2020/10/12 08:16:35;;;;;;;1;0.5;;;;;;;8.01;80.10449;940.7992;;;;
2020/10/12 08:19:00;;;;;;;0.9;0.6;;;;;;;7.9;77.95996;940.7512;;;;
2020/10/12 08:21:27;;;;;;;0.5;0.5;;;;;;;7.89;78.70801;940.6986;;;;
2020/10/12 08:23:52;;;;;;;0.6;0.5;;;;;;;8.06;79.76074;940.7299;;;;
2020/10/12 08:26:17;;;;;;;0.7;0.5;;;;;;;8.02;78.22168;940.7352;;;;
2020/10/12 08:28:44;;;;;;;2.3;0.8;;;;;;;8.22;77.14453;940.7178;;;;
2020/10/12 08:31:09;;;;;;;0.6;0.5;;;;;;;8.17;77.51172;940.6942;;;;
2020/10/12 08:33:36;;;;;;;0.9;0.7;;;;;;;8.39;75.94824;940.6322;;;;
2020/10/12 08:36:01;;;;;;;2.1;1;;;;;;;8.76;78.12891;940.5919;;;;
2020/10/12 08:38:26;;;;;;;1.4;1.1;;;;;;;8.93;78.27246;940.5938;;;;
2020/10/12 08:40:52;;;;;;;1.9;1;;;;;;;9.1;74.59473;940.6372;;;;
2020/10/12 08:43:17;;;;;;;1;0.9;;;;;;;9.25;74.68652;940.6099;;;;
2020/10/12 08:45:46;;;;;;;1;0.9;;;;;;;9.72;73.55078;940.6392;;;;
2020/10/12 08:48:11;;;;;;;7.1;0.9;;;;;;;10.68;71.39648;940.592;;;;
2020/10/12 08:50:37;;;;;;;1.3;0.7;;;;;;;11.15;64.85254;940.5789;;;;
2020/10/12 08:53:02;;;;;;;0.9;0.7;;;;;;;11.19;65.97949;940.5275;;;;
2020/10/12 08:55:33;;;;;;;1.2;0.8;;;;;;;11.13;65.92383;940.5476;;;;
2020/10/12 08:58:07;;;;;;;0.9;0.8;;;;;;;11.51;65.61719;940.4914;;;;
2020/10/12 09:00:33;;;;;;;0.7;0.6;;;;;;;12.07;63.13379;940.5219;;;;
2020/10/12 09:03:03;;;;;;;1.4;0.5;;;;;;;11.61;64.02734;940.5385;;;;
2020/10/12 09:05:28;;;;;;;1.3;0.8;;;;;;;11.79;63.85938;940.4697;;;;
2020/10/12 09:08:00;;;;;;;1.7;1.1;;;;;;;11.8;64.18359;940.5145;;;;
2020/10/12 09:10:28;;;;;;;0.8;0.7;;;;;;;11.74;64.68945;940.4866;;;;
2020/10/12 09:12:58;;;;;;;0.9;0.8;;;;;;;11.8;64.57324;940.568;;;;
2020/10/12 09:15:24;;;;;;;1.6;1.2;;;;;;;11.39;65.79297;940.5083;;;;
2020/10/12 09:17:50;;;;;;;1.5;1.1;;;;;;;10.7;69.41016;940.4934;;;;
2020/10/12 09:20:15;;;;;;;1.4;0.8;;;;;;;11.1;65.1416;940.442;;;;
2020/10/12 09:22:43;;;;;;;0.6;0.5;;;;;;;11.25;65.0957;940.4017;;;;
2020/10/12 09:25:06;;;;;;;0.6;0.5;;;;;;;11.17;65.99805;940.3655;;;;
2020/10/12 09:27:32;;;;;;;0.7;0.6;;;;;;;11.17;67.31348;940.3918;;;;
2020/10/12 09:29:57;;;;;;;1.4;0.9;;;;;;;11.07;63.29688;940.3844;;;;
2020/10/12 09:32:22;;;;;;;1.2;0.9;;;;;;;10.65;64.5166;940.3837;;;;
2020/10/12 09:34:47;;;;;;;2.4;1;;;;;;;10.67;69.66895;940.399;;;;
2020/10/12 09:37:13;;;;;;;1.8;1;;;;;;;10.31;70.62598;940.3588;;;;
2020/10/12 09:39:38;;;;;;;2.4;0.9;;;;;;;10.47;71.22266;940.3031;;;;
2020/10/12 09:42:07;;;;;;;0.9;0.7;;;;;;;10.78;69.98438;940.3542;;;;
2020/10/12 09:44:32;;;;;;;1.3;1;;;;;;;11;64.69336;940.3483;;;;
2020/10/12 09:46:57;;;;;;;0.9;0.7;;;;;;;11.42;64.6084;940.3136;;;;
2020/10/12 09:49:23;;;;;;;1.5;0.9;;;;;;;11.91;62.62891;940.2755;;;;
2020/10/12 09:51:51;;;;;;;3.6;0.7;;;;;;;12.45;62.55859;940.2135;;;;
2020/10/12 09:54:15;;;;;;;0.9;0.7;;;;;;;12.57;57.01172;940.1589;;;;
2020/10/12 09:56:41;;;;;;;1.5;0.7;;;;;;;12.47;57.64258;940.1601;;;;
2020/10/12 09:59:06;;;;;;;1.8;0.9;;;;;;;12.5;58.59668;940.1962;;;;
2020/10/12 10:01:31;;;;;;;0.7;0.6;;;;;;;12.48;60.44043;940.1489;;;;
2020/10/12 10:03:56;;;;;;;2.6;1;;;;;;;11.93;58.1543;940.1742;;;;
2020/10/12 10:06:23;;;;;;;0.7;0.7;;;;;;;11.67;63.4873;940.1071;;;;
2020/10/12 10:08:47;;;;;;;0.6;0.5;;;;;;;11.42;59.10352;940.0879;;;;
2020/10/12 10:11:13;;;;;;;1.4;0.7;;;;;;;11.72;64.27344;940.0659;;;;
2020/10/12 10:13:39;;;;;;;0.7;0.6;;;;;;;11.63;59.56738;939.9249;;;;
2020/10/12 10:16:04;;;;;;;1.7;1.1;;;;;;;12.03;63.72461;939.9861;;;;
2020/10/12 10:18:30;;;;;;;1;0.8;;;;;;;11.51;65.62891;939.9858;;;;
2020/10/12 10:20:57;;;;;;;1.7;1;;;;;;;11.45;61.13281;939.9247;;;;
2020/10/12 10:23:22;;;;;;;1;0.9;;;;;;;11.71;59.93262;939.9574;;;;
2020/10/12 10:25:47;;;;;;;1.6;1;;;;;;;12.38;59.88867;939.8694;;;;
2020/10/12 10:28:12;;;;;;;1.5;1;;;;;;;12.51;59.55078;939.8847;;;;
2020/10/12 10:30:37;;;;;;;2.4;1.1;;;;;;;12.54;54.14063;939.9128;;;;
2020/10/12 10:33:04;;;;;;;1;0.8;;;;;;;12.47;53.73047;939.839;;;;
2020/10/12 10:35:29;;;;;;;1.3;0.7;;;;;;;12.51;53.2998;939.8033;;;;
2020/10/12 10:37:55;;;;;;;0.6;0.5;;;;;;;12.67;50.66797;939.7722;;;;
2020/10/12 10:40:20;;;;;;;1.5;0.5;;;;;;;12.74;53.94727;939.8069;;;;
2020/10/12 10:42:47;;;;;;;1.1;0.8;;;;;;;12.53;51.85645;939.8273;;;;
2020/10/12 10:45:14;;;;;;;4.6;0.7;;;;;;;12.14;51.74219;939.8231;;;;
2020/10/12 10:47:39;;;;;;;1.4;0.9;;;;;;;11.39;53.74512;939.8155;;;;
2020/10/12 10:50:04;;;;;;;2.5;0.8;;;;;;;11;56.06348;939.8105;;;;
2020/10/12 10:52:29;;;;;;;1;0.5;;;;;;;11.02;60.33008;939.7025;;;;
2020/10/12 10:54:56;;;;;;;1.1;0.6;;;;;;;10.87;62.23926;939.7972;;;;
2020/10/12 10:57:24;;;;;;;0.7;0.6;;;;;;;10.83;60.90723;939.8301;;;;
2020/10/12 10:59:47;;;;;;;0.7;0.7;;;;;;;10.88;60.71094;939.7558;;;;
2020/10/12 11:02:12;;;;;;;1;0.6;;;;;;;10.83;61.85742;939.7935;;;;
2020/10/12 11:04:38;;;;;;;1.4;0.9;;;;;;;9.89;63.27344;939.7347;;;;
2020/10/12 11:07:03;;;;;;;2;1.1;;;;;;;10.05;63.80957;939.6632;;;;
2020/10/12 11:09:33;;;;;;;0.5;0.5;;;;;;;10.33;64.63965;939.7328;;;;
2020/10/12 11:11:58;;;;;;;1;0.7;;;;;;;10.68;64.34961;939.7015;;;;
2020/10/12 11:14:24;;;;;;;1.6;0.6;;;;;;;11;62.40625;939.6797;;;;
2020/10/12 11:16:50;;;;;;;0.4;0.4;;;;;;;11.1;62.25;939.6658;;;;
2020/10/12 11:19:16;;;;;;;3.3;1.1;;;;;;;10.7;63.34668;939.7233;;;;
2020/10/12 11:21:42;;;;;;;3.7;1.7;;;;;;;10.46;62.625;939.7258;;;;
2020/10/12 11:24:07;;;;;;;1;0.8;;;;;;;10.89;62.75781;939.7671;;;;
2020/10/12 11:26:33;;;;;;;0.6;0.5;;;;;;;11.02;61.23242;939.7631;;;;
2020/10/12 11:28:59;;;;;;;0.9;0.7;;;;;;;11.13;60.12793;939.6948;;;;
2020/10/12 11:31:25;;;;;;;0.9;0.7;;;;;;;11.34;59.19629;939.6253;;;;
2020/10/12 11:33:49;;;;;;;0.6;0.5;;;;;;;11.37;58.74316;939.6495;;;;
2020/10/12 11:36:16;;;;;;;1.2;0.9;;;;;;;11.42;55.7627;939.5449;;;;
2020/10/12 11:38:41;;;;;;;0.5;0.4;;;;;;;11.43;57.09082;939.4916;;;;
2020/10/12 11:41:08;;;;;;;1.2;0.8;;;;;;;11.15;58.94141;939.3922;;;;
2020/10/12 11:43:33;;;;;;;0.9;0.5;;;;;;;11.41;56.4707;939.4736;;;;
2020/10/12 11:46:00;;;;;;;1.2;0.7;;;;;;;11.87;56.93164;939.4207;;;;
2020/10/12 11:48:25;;;;;;;1.8;0.9;;;;;;;12.21;56.03711;939.4467;;;;
2020/10/12 11:50:50;;;;;;;1.1;0.8;;;;;;;12.34;54.02441;939.4595;;;;
2020/10/12 11:53:15;;;;;;;0.7;0.6;;;;;;;12.11;56.86035;939.4199;;;;
2020/10/12 11:55:40;;;;;;;1.1;0.9;;;;;;;12.09;56.03223;939.3647;;;;
2020/10/12 11:58:07;;;;;;;0.6;0.6;;;;;;;11.87;57.04785;939.3544;;;;
2020/10/12 12:00:32;;;;;;;1;0.8;;;;;;;12.07;56.96973;939.3758;;;;
2020/10/12 12:02:57;;;;;;;0.6;0.5;;;;;;;12.26;55.5625;939.3801;;;;
2020/10/12 12:05:23;;;;;;;0.9;0.6;;;;;;;12.42;53.63281;939.3269;;;;
2020/10/12 12:07:48;;;;;;;0.7;0.6;;;;;;;12.59;54.29688;939.4066;;;;
2020/10/12 12:10:16;;;;;;;1;0.7;;;;;;;12.36;51.6084;939.4166;;;;
2020/10/12 12:12:43;;;;;;;0.6;0.6;;;;;;;12.4;52.56348;939.3967;;;;
2020/10/12 12:15:13;;;;;;;0.6;0.6;;;;;;;12.43;55.36621;939.2989;;;;
2020/10/12 12:17:39;;;;;;;2.1;0.6;;;;;;;12.82;51.51367;939.2816;;;;
2020/10/12 12:20:04;;;;;;;0.7;0.5;;;;;;;12.87;53.10156;939.2657;;;;
2020/10/12 12:22:31;;;;;;;0.4;0.4;;;;;;;13.17;51.83008;939.2193;;;;
2020/10/12 12:24:56;;;;;;;3;1;;;;;;;12.88;52.74805;939.1937;;;;
2020/10/12 12:27:22;;;;;;;1.4;0.6;;;;;;;12.69;54.00977;939.1778;;;;
2020/10/12 12:29:47;;;;;;;0.8;0.7;;;;;;;12.77;50.85254;939.0845;;;;
2020/10/12 12:32:12;;;;;;;0.8;0.6;;;;;;;12.77;49.93457;939.1669;;;;
2020/10/12 12:34:39;;;;;;;1.6;0.6;;;;;;;12.9;51.28125;939.1124;;;;
2020/10/12 12:37:04;;;;;;;1.9;0.5;;;;;;;14.86;47.92578;939.1024;;;;
2020/10/12 12:39:29;;;;;;;0.4;0.4;;;;;;;16.12;44.81445;938.9713;;;;
2020/10/12 12:41:55;;;;;;;1;0.4;;;;;;;16.69;44.69922;938.9392;;;;
2020/10/12 12:44:20;;;;;;;0.2;0.2;;;;;;;17.94;39.87891;938.8929;;;;
2020/10/12 12:46:45;;;;;;;1.1;0.6;;;;;;;19.22;36.24512;938.8903;;;;
2020/10/12 12:49:12;;;;;;;0.4;0.4;;;;;;;20.21;35.95313;938.872;;;;
2020/10/12 12:51:35;;;;;;;0.7;0.4;;;;;;;20.51;35.83691;938.8155;;;;
2020/10/12 12:54:00;;;;;;;0.7;0.5;;;;;;;19.21;35.94043;938.8322;;;;
2020/10/12 12:56:26;;;;;;;0.4;0.4;;;;;;;18.08;37.91699;938.8697;;;;
2020/10/12 12:58:51;;;;;;;1.1;0.3;;;;;;;17.4;41.11816;938.7728;;;;
2020/10/12 13:01:19;;;;;;;0.4;0.2;;;;;;;16.51;41.46191;938.8075;;;;
2020/10/12 13:03:46;;;;;;;1.9;0.8;;;;;;;15.58;47.85449;938.8348;;;;
2020/10/12 13:06:12;;;;;;;0.7;0.4;;;;;;;14.82;44.65723;938.7595;;;;
2020/10/12 13:08:37;;;;;;;0.3;0.3;;;;;;;13.61;47.38672;938.8089;;;;
2020/10/12 13:11:03;;;;;;;0.2;0.2;;;;;;;13.66;47.08203;938.8547;;;;
2020/10/12 13:13:29;;;;;;;0.4;0.3;;;;;;;13.55;48.59863;938.7955;;;;
2020/10/12 13:15:55;;;;;;;0.4;0.3;;;;;;;13.23;48.94238;938.8825;;;;
2020/10/12 13:18:21;;;;;;;0.6;0.5;;;;;;;13.08;50.73926;938.8755;;;;
2020/10/12 13:20:46;;;;;;;1.5;1.1;;;;;;;12.9;52.77344;938.8406;;;;
2020/10/12 13:23:11;;;;;;;1.9;0.7;;;;;;;12.72;54.33594;938.8;;;;
2020/10/12 13:25:38;;;;;;;0.9;0.7;;;;;;;12.37;57.75391;938.7355;;;;
2020/10/12 13:28:03;;;;;;;1.3;0.4;;;;;;;12.41;56.93457;938.7587;;;;
2020/10/12 13:30:33;;;;;;;3.5;0.9;;;;;;;12.24;57.94336;938.699;;;;
2020/10/12 13:32:58;;;;;;;0.6;0.5;;;;;;;11.59;62.25195;938.7248;;;;
2020/10/12 13:35:24;;;;;;;1.8;0.9;;;;;;;11.73;56.91406;938.8088;;;;
2020/10/12 13:37:49;;;;;;;0.4;0.4;;;;;;;11.83;54.61426;938.7542;;;;
2020/10/12 13:40:15;;;;;;;0.7;0.6;;;;;;;11.97;53.76074;938.778;;;;
2020/10/12 13:42:41;;;;;;;0.7;0.4;;;;;;;11.98;53.14355;938.7692;;;;
2020/10/12 13:45:06;;;;;;;1.5;0.5;;;;;;;11.93;54.16797;938.7075;;;;
2020/10/12 13:47:31;;;;;;;2.5;0.8;;;;;;;12.08;53.99121;938.6638;;;;
2020/10/12 13:49:56;;;;;;;1.2;0.5;;;;;;;11.97;53.57715;938.7349;;;;
2020/10/12 13:52:22;;;;;;;0.5;0.3;;;;;;;11.94;53.5498;938.6525;;;;
2020/10/12 13:54:47;;;;;;;0.6;0.4;;;;;;;11.96;54.85938;938.7094;;;;
2020/10/12 13:57:13;;;;;;;1.9;0.8;;;;;;;11.95;52.68262;938.6822;;;;
2020/10/12 13:59:38;;;;;;;0.6;0.3;;;;;;;11.89;53.63574;938.6882;;;;
2020/10/12 14:02:07;;;;;;;0.6;0.5;;;;;;;11.51;55.93457;938.6972;;;;
2020/10/12 14:04:33;;;;;;;2;0.4;;;;;;;11.62;56.3623;938.7181;;;;
2020/10/12 14:06:58;;;;;;;0.3;0.3;;;;;;;11.78;56.55371;938.6663;;;;
2020/10/12 14:09:23;;;;;;;0.8;0.6;;;;;;;11.77;55.7959;938.6663;;;;
2020/10/12 14:11:48;;;;;;;0.9;0.4;;;;;;;11.72;56.23633;938.6795;;;;
2020/10/12 14:14:13;;;;;;;1;0.5;;;;;;;11.61;57.49316;938.6906;;;;
2020/10/12 14:16:38;;;;;;;1.1;0.5;;;;;;;11.57;57.35059;938.6481;;;;
2020/10/12 14:19:03;;;;;;;0.7;0.5;;;;;;;11.51;57.52539;938.6708;;;;
2020/10/12 14:21:29;;;;;;;0.6;0.5;;;;;;;11.49;57.38672;938.6755;;;;
2020/10/12 14:23:54;;;;;;;1.3;0.5;;;;;;;11.48;56.66309;938.6635;;;;
2020/10/12 14:26:20;;;;;;;0.4;0.4;;;;;;;11.37;57.55273;938.6449;;;;
2020/10/12 14:28:45;;;;;;;1;0.6;;;;;;;11.46;57.88477;938.7606;;;;
2020/10/12 14:31:10;;;;;;;1.7;1.2;;;;;;;11.09;60.6709;938.7087;;;;
2020/10/12 14:33:36;;;;;;;3.2;1;;;;;;;11.02;61.70117;938.6994;;;;
2020/10/12 14:36:01;;;;;;;1.9;1.1;;;;;;;10.93;63.81445;938.5684;;;;
2020/10/12 14:38:26;;;;;;;9.8;4.4;;;;;;;10.75;66.10645;938.6295;;;;
2020/10/12 14:40:55;;;;;;;6.1;2.4;;;;;;;10.58;65.22559;938.65;;;;
2020/10/12 14:43:20;;;;;;;0.9;0.7;;;;;;;10.6;63.97168;938.6231;;;;
2020/10/12 14:45:46;;;;;;;2.7;1.3;;;;;;;10.6;66.39258;938.6406;;;;
2020/10/12 14:48:11;;;;;;;3.1;1.6;;;;;;;10.47;65.35547;938.644;;;;
2020/10/12 14:50:44;;;;;;;3.4;1.3;;;;;;;10.36;63.81055;938.653;;;;
2020/10/12 14:53:13;;;;;;;1.2;0.7;;;;;;;10.52;64.12988;938.6613;;;;
2020/10/12 14:55:39;;;;;;;0.9;0.6;;;;;;;10.61;63.03516;938.6789;;;;
2020/10/12 14:58:04;;;;;;;0.6;0.6;;;;;;;10.67;62.56445;938.6487;;;;
2020/10/12 15:00:30;;;;;;;1.3;0.8;;;;;;;10.65;62.09375;938.6421;;;;
2020/10/12 15:02:55;;;;;;;2.6;0.9;;;;;;;10.66;61.49023;938.6383;;;;
2020/10/12 15:05:21;;;;;;;2.2;0.9;;;;;;;10.49;61.84277;938.649;;;;
2020/10/12 15:07:46;;;;;;;1.7;1.1;;;;;;;10.42;60.91895;938.6953;;;;
2020/10/12 15:10:11;;;;;;;4.2;1.5;;;;;;;10.3;64.54395;938.5895;;;;
2020/10/12 15:12:39;;;;;;;7.1;1;;;;;;;10.35;66.66211;938.6354;;;;
2020/10/12 15:15:04;;;;;;;2.2;0.8;;;;;;;10.27;68.63379;938.6456;;;;
2020/10/12 15:17:29;;;;;;;2.1;0.9;;;;;;;10.1;69.01855;938.6989;;;;
2020/10/12 15:19:54;;;;;;;1.6;1.1;;;;;;;10.02;70.56934;938.7321;;;;
2020/10/12 15:22:19;;;;;;;1.2;1;;;;;;;10.01;70.91992;938.6203;;;;
2020/10/12 15:24:47;;;;;;;0.6;0.6;;;;;;;9.7;70.24121;938.6813;;;;
2020/10/12 15:27:12;;;;;;;0.9;0.9;;;;;;;9.5;71.93066;938.5703;;;;
2020/10/12 15:29:40;;;;;;;1.6;0.8;;;;;;;9.36;71.90625;938.6641;;;;
2020/10/12 15:32:06;;;;;;;1.5;0.8;;;;;;;9.38;72.08105;938.6255;;;;
2020/10/12 15:34:35;;;;;;;1.9;0.9;;;;;;;9.4;71.12793;938.6186;;;;
2020/10/12 15:37:00;;;;;;;1;0.8;;;;;;;9.5;72.36328;938.6664;;;;
2020/10/12 15:39:25;;;;;;;0.7;0.7;;;;;;;9.59;70.24805;938.6772;;;;
2020/10/12 15:41:50;;;;;;;2.2;1.1;;;;;;;9.66;70.24707;938.6808;;;;
2020/10/12 15:44:15;;;;;;;2.6;1.8;;;;;;;9.43;70.41504;938.6941;;;;
2020/10/12 15:46:40;;;;;;;2.1;1.4;;;;;;;9.45;71.76367;938.7238;;;;
2020/10/12 15:49:09;;;;;;;2.9;1.8;;;;;;;9.36;74.37695;938.7428;;;;
2020/10/12 15:51:35;;;;;;;4.4;1.2;;;;;;;9.35;72.87207;938.722;;;;
2020/10/12 15:54:00;;;;;;;1.9;1.2;;;;;;;9.27;74.70313;938.7255;;;;
2020/10/12 15:56:27;;;;;;;2.8;1;;;;;;;9.1;74.29883;938.7394;;;;
2020/10/12 15:58:53;;;;;;;4.5;1.8;;;;;;;9.04;74.75488;938.7377;;;;
2020/10/12 16:01:17;;;;;;;2.9;1.6;;;;;;;9.12;73.96094;938.7327;;;;
2020/10/12 16:03:44;;;;;;;2;1.2;;;;;;;9.05;73.76465;938.6719;;;;
2020/10/12 16:06:09;;;;;;;1.6;1;;;;;;;9.02;73.13574;938.6555;;;;
2020/10/12 16:08:35;;;;;;;9;1.4;;;;;;;9.02;74.11328;938.7516;;;;